Time;durP1;ratioP1;P1;durP2;ratioP2;P2;SDS_P1;SDS_P2;PMS_P1;PMS_P2;Temp;Humidity;BMP_temperature;BMP_pressure;BME280_temperature;BME280_humidity;BME280_pressure;Samples;Min_cycle;Max_cycle;Signal;HPM_P1;HPM_P2
2022/01/14 00:01:19;;;;;;;22.37;9.50;;;;;;;5.85;56.59;101223.50;4410522;32;33462;-77
2022/01/14 00:03:50;;;;;;;20.55;9.45;;;;;;;5.86;56.36;101217.88;4424354;32;34350;-78
2022/01/14 00:06:22;;;;;;;21.62;10.20;;;;;;;5.90;55.91;101221.19;4410547;32;32652;-77
2022/01/14 00:09:17;;;;;;;19.95;10.27;;;;;;;5.85;55.68;101223.50;4411258;32;34379;-78
2022/01/14 00:11:50;;;;;;;20.70;9.68;;;;;;;5.99;55.30;101217.63;4400198;32;32503;-77
2022/01/14 00:17:23;;;;;;;18.65;9.20;;;;;;;5.99;55.13;101223.09;4423176;32;33648;-77
2022/01/14 00:20:02;;;;;;;17.90;9.70;;;;;;;5.98;54.83;101215.91;4423247;32;35330;-77
2022/01/14 00:22:30;;;;;;;21.80;9.33;;;;;;;6.04;54.62;101209.87;4424254;32;33888;-77
2022/01/14 00:33:16;;;;;;;18.55;8.75;;;;;;;5.71;56.46;101204.81;4408020;32;34652;-77
2022/01/14 00:35:44;;;;;;;21.08;9.23;;;;;;;5.85;55.81;101207.97;4423116;32;33430;-77
2022/01/14 00:38:13;;;;;;;19.30;9.75;;;;;;;5.71;56.00;101211.12;4410570;32;33594;-77
2022/01/14 00:40:40;;;;;;;20.62;8.80;;;;;;;5.71;56.68;101202.09;4423062;32;35374;-77
2022/01/14 00:43:15;;;;;;;21.70;9.27;;;;;;;5.78;56.33;101200.53;4398810;32;33965;-77
2022/01/14 00:45:43;;;;;;;17.33;9.30;;;;;;;5.80;56.21;101201.25;4410681;32;33414;-77
2022/01/14 00:48:12;;;;;;;17.83;9.68;;;;;;;5.69;56.70;101199.50;4423053;32;33726;-77
2022/01/14 00:50:44;;;;;;;19.77;8.65;;;;;;;5.80;56.55;101195.81;4422923;32;34405;-77
2022/01/14 00:53:12;;;;;;;20.08;9.73;;;;;;;5.81;56.28;101192.06;4410590;32;34632;-77
2022/01/14 00:55:48;;;;;;;19.58;9.00;;;;;;;5.88;56.02;101190.47;4410455;32;33441;-77
2022/01/14 01:01:08;;;;;;;21.23;9.60;;;;;;;5.91;55.79;101184.78;4423322;32;34670;-77
2022/01/14 01:03:36;;;;;;;24.08;10.38;;;;;;;5.70;56.28;101184.91;4409772;32;33423;-77
2022/01/14 01:06:07;;;;;;;21.58;9.85;;;;;;;6.03;55.17;101178.19;4422855;32;34296;-77
2022/01/14 01:08:42;;;;;;;19.98;9.23;;;;;;;6.01;55.08;101180.19;4410294;32;33739;-77
2022/01/14 01:11:12;;;;;;;18.73;9.32;;;;;;;5.76;55.75;101183.47;4422948;32;34381;-77
2022/01/14 01:13:48;;;;;;;20.45;8.77;;;;;;;5.46;56.81;101190.72;4397697;32;33606;-77
2022/01/14 01:16:21;;;;;;;20.70;9.55;;;;;;;5.25;57.44;101181.75;4398507;32;31825;-77
2022/01/14 01:18:49;;;;;;;19.95;8.80;;;;;;;5.44;57.00;101187.28;4410135;32;34594;-76
2022/01/14 01:21:19;;;;;;;19.95;9.25;;;;;;;4.88;58.51;101185.06;4410208;32;35106;-77
2022/01/14 01:23:47;;;;;;;21.77;9.20;;;;;;;5.22;57.45;101187.47;4397576;32;32809;-77
2022/01/14 01:26:23;;;;;;;18.95;8.75;;;;;;;5.29;57.41;101188.66;4410136;32;33578;-77
2022/01/14 01:31:40;;;;;;;16.77;9.18;;;;;;;4.84;58.32;101180.91;4409989;32;32893;-77
2022/01/14 01:34:21;;;;;;;20.37;8.73;;;;;;;5.11;57.84;101177.59;4410360;32;33629;-77
2022/01/14 01:36:51;;;;;;;18.40;8.77;;;;;;;5.44;56.84;101178.25;4423832;32;33227;-77
2022/01/14 01:39:25;;;;;;;18.02;8.93;;;;;;;5.25;57.23;101168.16;4422467;32;33580;-77
2022/01/14 01:42:06;;;;;;;19.52;8.65;;;;;;;5.37;56.79;101164.31;4409949;32;32884;-77
2022/01/14 01:44:43;;;;;;;19.15;8.63;;;;;;;5.35;56.82;101155.44;4410068;32;34742;-77
2022/01/14 01:47:18;;;;;;;16.00;8.35;;;;;;;5.33;56.73;101157.44;4410426;32;34064;-77
2022/01/14 01:49:54;;;;;;;20.02;8.77;;;;;;;5.45;56.28;101153.59;4422503;32;34532;-77
2022/01/14 01:52:24;;;;;;;19.73;9.30;;;;;;;5.15;56.85;101159.13;4410029;32;34222;-77
2022/01/14 01:55:00;;;;;;;18.45;9.38;;;;;;;4.69;58.45;101156.91;4409849;32;33413;-77
2022/01/14 01:57:33;;;;;;;18.67;8.77;;;;;;;4.66;58.92;101155.31;4422526;32;33508;-77
2022/01/14 02:00:06;;;;;;;21.55;9.05;;;;;;;4.86;58.34;101140.81;4409746;32;33213;-77
2022/01/14 02:02:46;;;;;;;19.95;8.60;;;;;;;4.37;59.92;101155.19;4411606;32;34378;-77
2022/01/14 02:05:17;;;;;;;20.20;9.13;;;;;;;4.49;59.37;101145.09;4406956;32;33519;-77
2022/01/14 02:07:50;;;;;;;19.87;8.75;;;;;;;4.46;59.54;101143.50;4420897;32;33147;-77
2022/01/14 02:10:22;;;;;;;18.20;9.05;;;;;;;4.58;59.06;101130.66;4409636;32;33273;-77
2022/01/14 02:12:53;;;;;;;23.75;12.13;;;;;;;4.77;58.44;101122.59;4409891;32;35308;-78
2022/01/14 02:15:31;;;;;;;28.98;13.43;;;;;;;4.89;57.97;101132.37;4421557;32;33716;-77
2022/01/14 02:24:35;;;;;;;20.85;11.20;;;;;;;4.78;58.05;101118.03;4409455;32;34074;-77
2022/01/14 02:27:06;;;;;;;26.40;10.73;;;;;;;4.82;57.83;101100.44;4409480;32;32415;-76
2022/01/14 02:29:39;;;;;;;21.73;10.02;;;;;;;4.91;57.54;101102.34;4422547;32;33704;-77
2022/01/14 02:32:12;;;;;;;19.73;9.85;;;;;;;4.88;57.40;101108.03;4422206;32;34020;-77
2022/01/14 02:34:51;;;;;;;20.65;9.88;;;;;;;5.05;56.88;101095.66;4409298;32;33818;-77
2022/01/14 02:37:53;;;;;;;18.80;8.82;;;;;;;4.95;56.90;101093.75;4409124;32;32634;-77
2022/01/14 02:40:29;;;;;;;17.55;8.65;;;;;;;5.02;56.50;101094.06;4410200;32;31762;-77
2022/01/14 02:43:02;;;;;;;20.45;9.50;;;;;;;5.05;56.16;101098.37;4409405;32;33271;-77
2022/01/14 02:45:34;;;;;;;19.40;8.77;;;;;;;5.09;55.75;101094.37;4409550;32;35189;-77
2022/01/14 02:48:08;;;;;;;18.40;9.27;;;;;;;4.89;56.30;101091.59;4409091;32;33469;-77
2022/01/14 02:51:01;;;;;;;19.77;9.05;;;;;;;4.77;56.38;101089.97;4410416;32;33445;-77
2022/01/14 02:56:12;;;;;;;18.45;8.57;;;;;;;4.69;56.39;101078.03;4409752;32;34092;-76
2022/01/14 02:58:49;;;;;;;16.95;8.85;;;;;;;4.78;56.13;101077.22;4409551;32;34571;-76
2022/01/14 03:01:22;;;;;;;22.02;9.07;;;;;;;4.49;56.65;101077.13;4409014;32;33234;-77
2022/01/14 03:04:02;;;;;;;18.55;9.35;;;;;;;4.49;56.95;101072.56;4422496;32;34922;-77
2022/01/14 03:06:33;;;;;;;20.73;9.45;;;;;;;4.27;57.82;101064.56;4409013;32;35109;-76
2022/01/14 03:09:08;;;;;;;20.30;8.98;;;;;;;4.38;57.46;101058.19;4408847;32;33457;-76
2022/01/14 03:11:47;;;;;;;20.05;9.02;;;;;;;4.35;58.34;101061.19;4408676;32;32946;-76
2022/01/14 03:14:23;;;;;;;19.73;9.38;;;;;;;4.28;58.99;101063.56;4409242;32;33780;-76
2022/01/14 03:16:58;;;;;;;23.00;10.10;;;;;;;4.20;59.63;101056.09;4396790;32;33922;-76
2022/01/14 03:19:27;;;;;;;18.83;8.63;;;;;;;4.05;60.50;101051.13;4422713;32;33921;-76
2022/01/14 03:22:07;;;;;;;21.85;9.77;;;;;;;4.52;59.10;101041.53;4408940;32;34246;-76
2022/01/14 03:27:17;;;;;;;21.35;9.80;;;;;;;4.33;59.82;101042.28;4410693;32;34508;-76
2022/01/14 03:29:50;;;;;;;20.88;9.40;;;;;;;4.44;59.46;101039.47;4398236;32;33444;-76
2022/01/14 03:32:18;;;;;;;19.52;9.50;;;;;;;4.34;59.87;101040.44;4398450;32;33247;-76
2022/01/14 03:34:48;;;;;;;21.42;9.95;;;;;;;4.55;59.19;101031.19;4423463;32;33384;-76
2022/01/14 03:37:26;;;;;;;20.48;9.95;;;;;;;4.43;59.68;101045.06;4410953;32;35158;-77
2022/01/14 03:40:02;;;;;;;20.35;10.38;;;;;;;4.39;59.94;101032.72;4411024;32;33970;-76
2022/01/14 03:42:36;;;;;;;22.60;9.85;;;;;;;4.26;60.43;101033.81;4424539;32;33507;-76
2022/01/14 03:45:07;;;;;;;20.67;9.98;;;;;;;4.13;61.14;101035.88;4423332;32;33024;-76
2022/01/14 03:47:40;;;;;;;24.85;10.55;;;;;;;4.20;60.89;101030.78;4410518;32;32979;-76
2022/01/14 03:50:11;;;;;;;23.25;10.38;;;;;;;4.37;60.26;101018.41;4410620;32;32536;-76
2022/01/14 03:52:52;;;;;;;19.17;9.52;;;;;;;4.41;60.17;101011.72;4411061;32;33310;-76
2022/01/14 03:55:26;;;;;;;20.45;9.70;;;;;;;4.26;60.55;101017.50;4410588;32;32170;-76
2022/01/14 03:57:56;;;;;;;21.75;9.73;;;;;;;4.44;60.01;101009.59;4410697;32;34593;-76
2022/01/14 04:00:32;;;;;;;21.30;10.30;;;;;;;4.37;60.33;101004.84;4410802;32;33898;-76
2022/01/14 04:03:11;;;;;;;23.95;10.68;;;;;;;4.14;61.19;100991.44;4410468;32;31952;-77
2022/01/14 04:05:57;;;;;;;20.55;9.48;;;;;;;4.38;60.83;100995.69;4410190;32;33288;-76
2022/01/14 04:08:31;;;;;;;17.87;8.90;;;;;;;4.03;62.03;100999.66;4423233;32;35360;-76
2022/01/14 04:11:04;;;;;;;22.75;10.13;;;;;;;4.27;61.31;100994.78;4423137;32;34691;-76
2022/01/14 04:13:50;;;;;;;20.92;10.27;;;;;;;4.21;61.55;100999.91;4411389;32;33441;-76
2022/01/14 04:16:30;;;;;;;18.67;8.30;;;;;;;4.06;62.61;100999.41;4410425;32;33440;-77
2022/01/14 04:19:00;;;;;;;;;;;;;;;3.87;63.28;100994.75;4411101;32;34350;-76
2022/01/14 04:21:33;;;;;;;18.62;9.02;;;;;;;4.33;62.07;100985.22;4423178;32;34868;-77
2022/01/14 04:24:01;;;;;;;21.08;9.95;;;;;;;4.44;61.56;100995.12;4424417;32;33340;-76
2022/01/14 04:26:30;;;;;;;22.10;9.63;;;;;;;4.32;62.12;100980.78;4410612;32;33871;-77
2022/01/14 04:29:06;;;;;;;22.87;10.23;;;;;;;4.27;62.04;100972.19;4424429;32;35063;-77
2022/01/14 04:31:41;;;;;;;19.12;9.20;;;;;;;4.08;62.66;100975.66;4424613;32;33957;-76
2022/01/14 04:34:14;;;;;;;21.20;9.77;;;;;;;4.24;62.50;100961.59;4410843;32;32012;-76
2022/01/14 04:36:47;;;;;;;19.70;9.90;;;;;;;4.45;61.80;100975.13;4409953;32;34450;-77
2022/01/14 04:39:20;;;;;;;20.88;9.52;;;;;;;4.23;62.62;100968.87;4410578;32;35198;-76
2022/01/14 04:41:50;;;;;;;21.58;9.95;;;;;;;4.54;61.61;100969.72;4398294;32;32216;-76
2022/01/14 04:44:23;;;;;;;21.52;9.05;;;;;;;4.37;62.31;100958.63;4397953;32;31751;-76
2022/01/14 04:47:12;;;;;;;20.85;9.50;;;;;;;4.25;62.42;100963.31;4410531;32;32379;-76
2022/01/14 04:49:47;;;;;;;24.37;10.50;;;;;;;4.43;62.16;100955.34;4423337;32;34604;-77
2022/01/14 04:52:20;;;;;;;18.55;8.88;;;;;;;3.56;65.27;100960.38;4410208;32;33473;-76
2022/01/14 04:54:56;;;;;;;23.87;10.18;;;;;;;3.60;65.39;100960.00;4397706;32;31771;-76
2022/01/14 04:57:26;;;;;;;20.42;9.55;;;;;;;4.03;64.16;100947.19;4410303;32;32282;-77
2022/01/14 05:00:01;;;;;;;20.02;9.38;;;;;;;3.94;63.48;100941.56;4422967;32;34319;-77
2022/01/14 05:02:29;;;;;;;24.13;10.60;;;;;;;3.93;63.76;100936.28;4409980;32;32619;-76
2022/01/14 05:04:59;;;;;;;23.92;10.68;;;;;;;4.24;62.65;100943.41;4422692;32;34320;-77
2022/01/14 05:07:27;;;;;;;23.83;10.73;;;;;;;4.34;61.99;100938.03;4422925;32;33783;-76
2022/01/14 05:10:17;;;;;;;21.65;9.68;;;;;;;4.30;61.56;100944.72;4410585;32;35186;-76
2022/01/14 05:12:53;;;;;;;22.73;10.35;;;;;;;4.29;61.86;100948.44;4410048;32;33203;-76
2022/01/14 05:15:26;;;;;;;20.80;10.02;;;;;;;4.65;60.41;100944.22;4410356;32;33317;-76
2022/01/14 05:17:56;;;;;;;21.40;9.10;;;;;;;4.48;60.66;100934.06;4423065;32;33878;-76
2022/01/14 05:20:24;;;;;;;23.12;9.40;;;;;;;4.50;60.71;100929.34;4410009;32;32918;-76
2022/01/14 05:22:55;;;;;;;22.00;10.30;;;;;;;4.16;61.57;100934.25;4398000;32;33946;-76
2022/01/14 05:25:22;;;;;;;21.23;10.27;;;;;;;4.36;60.97;100937.88;4410446;32;33256;-75
2022/01/14 05:27:50;;;;;;;23.05;10.38;;;;;;;4.28;61.13;100928.56;4424054;32;34660;-75
2022/01/14 05:30:18;;;;;;;21.45;10.57;;;;;;;4.28;61.11;100935.84;4409859;32;33055;-76
2022/01/14 05:32:48;;;;;;;24.67;10.00;;;;;;;4.38;60.60;100935.91;4410016;32;34876;-75
2022/01/14 05:35:18;;;;;;;19.80;9.73;;;;;;;4.40;60.79;100944.75;4397459;32;33078;-75
2022/01/14 05:37:57;;;;;;;24.70;11.27;;;;;;;4.47;60.45;100948.66;4410473;32;33700;-75
2022/01/14 05:40:31;;;;;;;19.62;9.07;;;;;;;4.34;61.04;100939.88;4398187;32;34315;-75
2022/01/14 05:43:01;;;;;;;33.22;15.30;;;;;;;4.35;61.14;100941.59;4410362;32;34005;-74
2022/01/14 05:45:32;;;;;;;24.90;11.90;;;;;;;4.19;61.78;100940.25;4410122;32;34214;-75
2022/01/14 05:47:59;;;;;;;28.15;12.52;;;;;;;4.07;62.41;100944.06;4409388;32;33356;-75
2022/01/14 05:50:30;;;;;;;25.90;12.07;;;;;;;4.08;62.29;100934.06;4423142;32;34739;-75
2022/01/14 05:52:58;;;;;;;22.37;10.23;;;;;;;3.60;63.88;100940.12;4422468;32;33994;-75
2022/01/14 05:55:31;;;;;;;29.00;10.95;;;;;;;3.99;62.57;100946.59;4397489;32;34400;-75
2022/01/14 05:58:02;;;;;;;22.73;10.40;;;;;;;3.91;62.60;100941.00;4410536;32;33667;-76
2022/01/14 06:00:30;;;;;;;21.37;10.20;;;;;;;4.17;61.76;100939.53;4422597;32;35189;-75
2022/01/14 06:02:58;;;;;;;22.83;11.48;;;;;;;4.37;61.27;100939.59;4397332;32;32295;-75
2022/01/14 06:05:26;;;;;;;24.48;11.52;;;;;;;4.10;62.13;100937.50;4422338;32;33897;-75
2022/01/14 06:07:53;;;;;;;22.20;10.88;;;;;;;3.89;62.34;100934.88;4409687;32;32183;-75
2022/01/14 06:10:22;;;;;;;27.65;13.10;;;;;;;4.30;61.48;100933.88;4423630;32;34623;-75
2022/01/14 06:12:50;;;;;;;24.02;10.45;;;;;;;4.34;61.20;100935.31;4409973;32;32530;-75
2022/01/14 06:15:18;;;;;;;20.75;10.93;;;;;;;4.38;60.93;100931.31;4408581;32;34207;-75
2022/01/14 06:17:51;;;;;;;23.17;10.73;;;;;;;4.24;61.53;100929.84;4421104;32;34486;-75
2022/01/14 06:20:19;;;;;;;22.98;10.52;;;;;;;4.39;61.16;100926.75;4404249;32;35142;-75
2022/01/14 06:22:47;;;;;;;20.83;10.25;;;;;;;4.40;61.16;100915.72;4407113;32;34100;-75
2022/01/14 06:25:19;;;;;;;20.10;9.93;;;;;;;4.48;60.79;100912.31;4406258;32;34086;-75
2022/01/14 06:27:55;;;;;;;34.92;18.17;;;;;;;4.36;60.80;100910.72;4407551;32;33813;-75
2022/01/14 06:30:25;;;;;;;30.37;14.32;;;;;;;4.44;60.55;100910.88;4406520;32;34419;-76
2022/01/14 06:32:56;;;;;;;20.83;11.00;;;;;;;4.54;60.32;100911.75;4394116;32;32521;-76
2022/01/14 06:35:26;;;;;;;22.35;10.07;;;;;;;4.47;61.00;100916.03;4394819;32;34135;-76
2022/01/14 06:37:59;;;;;;;24.67;11.40;;;;;;;4.61;60.41;100915.59;4394871;32;34752;-75
2022/01/14 06:40:34;;;;;;;23.80;10.15;;;;;;;4.55;60.04;100910.75;4406983;32;34546;-76
2022/01/14 06:43:09;;;;;;;21.67;10.85;;;;;;;4.42;60.01;100918.31;4394672;32;34160;-77
2022/01/14 06:45:47;;;;;;;22.48;9.95;;;;;;;4.51;59.87;100898.44;4394859;32;33407;-76
2022/01/14 06:48:18;;;;;;;23.85;10.65;;;;;;;4.43;60.02;100910.00;4406648;32;33619;-77
2022/01/14 06:50:55;;;;;;;22.13;10.40;;;;;;;4.53;59.88;100907.31;4394479;32;35161;-76
2022/01/14 06:53:23;;;;;;;22.65;10.73;;;;;;;4.54;59.48;100900.88;4394321;32;34042;-76
2022/01/14 06:55:56;;;;;;;22.98;10.68;;;;;;;4.49;59.89;100895.00;4381678;32;33932;-76
2022/01/14 06:58:32;;;;;;;22.25;10.50;;;;;;;4.56;59.81;100901.56;4405201;32;33697;-75
2022/01/14 07:01:00;;;;;;;24.98;11.25;;;;;;;4.61;59.32;100899.28;4393101;32;32834;-76
2022/01/14 07:03:33;;;;;;;20.75;10.80;;;;;;;4.87;61.36;100900.47;4393904;32;32534;-76
2022/01/14 07:06:07;;;;;;;18.80;9.85;;;;;;;4.55;60.92;100899.88;4404762;32;31840;-76
2022/01/14 07:08:38;;;;;;;21.05;10.98;;;;;;;4.59;60.49;100895.84;4408029;32;33821;-76
2022/01/14 07:11:11;;;;;;;23.55;11.05;;;;;;;4.27;61.16;100902.38;4395401;32;32940;-76
2022/01/14 07:13:44;;;;;;;20.23;9.63;;;;;;;4.29;62.15;100900.41;4408220;32;33750;-76
2022/01/14 07:16:26;;;;;;;22.25;9.52;;;;;;;4.33;62.35;100897.41;4409667;32;33313;-76
2022/01/14 07:19:00;;;;;;;20.15;9.55;;;;;;;4.58;61.34;100895.00;4408294;32;32295;-76
2022/01/14 07:21:34;;;;;;;24.10;12.10;;;;;;;4.21;63.24;100892.06;4383285;32;32998;-76
2022/01/14 07:24:10;;;;;;;30.65;14.70;;;;;;;4.15;63.67;100880.91;4395418;32;32845;-76
2022/01/14 07:26:45;;;;;;;31.60;16.62;;;;;;;4.24;64.01;100883.66;4421187;32;33096;-76
2022/01/14 07:29:16;;;;;;;22.73;9.80;;;;;;;4.25;63.83;100881.78;4396244;32;33277;-76
2022/01/14 07:31:52;;;;;;;21.70;9.98;;;;;;;4.48;62.73;100876.97;4408664;32;34710;-76
2022/01/14 07:34:28;;;;;;;18.60;7.93;;;;;;;4.59;62.08;100871.37;4409416;32;34127;-76
2022/01/14 07:36:56;;;;;;;19.70;9.18;;;;;;;4.81;61.39;100881.13;4409379;32;33560;-76
2022/01/14 07:39:27;;;;;;;19.45;8.55;;;;;;;4.57;62.23;100873.38;4420869;32;33793;-76
2022/01/14 07:41:58;;;;;;;19.17;8.95;;;;;;;4.61;62.15;100869.38;4408194;32;33922;-76
2022/01/14 07:44:49;;;;;;;17.27;8.65;;;;;;;4.67;62.69;100876.12;4408744;32;33799;-76
2022/01/14 07:47:21;;;;;;;19.75;9.38;;;;;;;4.43;63.56;100879.25;4408100;32;34179;-76
2022/01/14 07:49:54;;;;;;;17.23;8.40;;;;;;;4.71;64.08;100883.00;4408591;32;33309;-76
2022/01/14 07:52:22;;;;;;;21.25;8.90;;;;;;;4.89;62.29;100892.16;4396447;32;35165;-77
2022/01/14 07:54:52;;;;;;;20.65;7.93;;;;;;;4.73;62.83;100891.88;4383379;32;33925;-77
2022/01/14 07:57:26;;;;;;;16.90;7.37;;;;;;;4.63;62.99;100889.13;4406729;32;34291;-77
2022/01/14 07:59:59;;;;;;;17.25;8.35;;;;;;;4.41;63.96;100884.84;4414129;32;33595;-77
2022/01/14 08:02:32;;;;;;;21.23;8.98;;;;;;;4.35;64.15;100890.81;4405346;32;32954;-77
2022/01/14 08:05:03;;;;;;;33.72;14.13;;;;;;;4.59;63.04;100883.12;4401641;32;34007;-77
2022/01/14 08:07:34;;;;;;;18.52;8.77;;;;;;;4.24;64.38;100894.50;4401069;32;32880;-75
2022/01/14 08:10:09;;;;;;;19.20;8.95;;;;;;;4.42;63.93;100882.97;4403518;32;33714;-75
2022/01/14 08:12:43;;;;;;;18.62;8.82;;;;;;;4.71;63.25;100891.16;4400536;32;32994;-75
2022/01/14 08:15:14;;;;;;;17.67;8.48;;;;;;;4.55;63.28;100886.28;4402309;32;32478;-74
2022/01/14 08:17:50;;;;;;;18.02;8.48;;;;;;;4.80;62.82;100887.56;4402246;32;34151;-75
2022/01/14 08:20:18;;;;;;;19.55;8.35;;;;;;;4.97;62.61;100876.84;4390658;32;31950;-75
2022/01/14 08:22:52;;;;;;;15.65;7.72;;;;;;;4.89;62.75;100878.56;4425842;32;34474;-75
2022/01/14 08:25:23;;;;;;;16.77;7.78;;;;;;;4.39;63.75;100873.25;4398960;32;32403;-75
2022/01/14 08:27:54;;;;;;;18.98;9.07;;;;;;;4.66;63.56;100880.69;4401248;32;32064;-74
2022/01/14 08:30:28;;;;;;;18.73;9.27;;;;;;;4.62;63.75;100869.25;4401955;32;33345;-74
2022/01/14 08:33:07;;;;;;;21.92;9.77;;;;;;;5.26;63.21;100878.66;4401457;32;34419;-74
2022/01/14 08:35:35;;;;;;;19.48;8.45;;;;;;;5.11;61.78;100874.69;4403011;32;34147;-75
2022/01/14 08:38:09;;;;;;;18.52;8.45;;;;;;;5.16;62.26;100862.38;4402605;32;33470;-75
2022/01/14 08:40:41;;;;;;;15.55;7.70;;;;;;;5.58;60.40;100867.41;4411555;32;33171;-75
2022/01/14 08:43:20;;;;;;;18.65;7.70;;;;;;;5.37;60.83;100858.56;4402241;32;35144;-75
2022/01/14 08:45:58;;;;;;;15.90;7.82;;;;;;;5.59;59.93;100853.66;4400820;32;34778;-75
2022/01/14 08:48:33;;;;;;;17.30;8.18;;;;;;;5.86;59.28;100851.94;4407518;32;33037;-76
2022/01/14 08:51:07;;;;;;;15.43;7.50;;;;;;;5.79;59.39;100853.59;4395080;32;34676;-75
2022/01/14 08:53:35;;;;;;;18.58;8.10;;;;;;;5.37;60.54;100850.41;4379470;32;34103;-75
2022/01/14 08:56:09;;;;;;;53.25;26.15;;;;;;;5.43;60.66;100852.56;4406935;32;33872;-75
2022/01/14 08:58:45;;;;;;;17.75;8.48;;;;;;;5.41;62.23;100847.25;4394910;32;32385;-75
2022/01/14 09:01:18;;;;;;;26.35;11.20;;;;;;;5.40;61.46;100840.09;4394699;32;33388;-74
2022/01/14 09:03:48;;;;;;;20.50;8.40;;;;;;;5.94;60.64;100835.75;4402565;32;34570;-74
2022/01/14 09:06:16;;;;;;;19.27;9.00;;;;;;;5.63;61.27;100846.91;4413915;32;34820;-75
2022/01/14 09:08:44;;;;;;;14.10;6.90;;;;;;;5.90;60.31;100839.78;4402458;32;32831;-74
2022/01/14 09:11:12;;;;;;;17.70;8.57;;;;;;;5.52;61.24;100854.37;4427147;32;34558;-74
2022/01/14 09:13:44;;;;;;;19.58;8.63;;;;;;;6.09;59.79;100844.28;4425866;32;35361;-74
2022/01/14 09:16:20;;;;;;;14.35;7.62;;;;;;;6.00;60.83;100843.31;4401980;32;34740;-74
2022/01/14 09:18:48;;;;;;;14.38;6.55;;;;;;;6.05;59.67;100840.13;4401350;32;33656;-77
2022/01/14 09:21:20;;;;;;;13.98;6.35;;;;;;;6.47;58.67;100837.72;4403788;32;31613;-75
2022/01/14 09:24:03;;;;;;;13.15;5.87;;;;;;;6.43;58.52;100825.41;4399899;32;35647;-75
2022/01/14 09:26:38;;;;;;;12.55;5.65;;;;;;;5.93;59.48;100821.25;4425722;32;34814;-75
2022/01/14 09:29:18;;;;;;;12.85;5.32;;;;;;;6.11;58.62;100821.31;4121281;32;9250475;-75
2022/01/14 09:31:48;;;;;;;12.07;5.10;;;;;;;6.37;58.10;100801.50;4400394;32;33324;-75
2022/01/14 09:34:17;;;;;;;12.75;6.05;;;;;;;6.51;57.74;100804.50;4397849;32;32701;-76
2022/01/14 09:36:49;;;;;;;12.02;5.93;;;;;;;6.33;58.10;100809.13;4423182;32;34326;-76
2022/01/14 09:39:26;;;;;;;19.15;8.82;;;;;;;6.90;56.94;100802.31;4410461;32;32534;-75
2022/01/14 09:41:59;;;;;;;18.75;8.32;;;;;;;6.77;57.08;100790.94;4385373;32;31925;-76
2022/01/14 09:44:34;;;;;;;12.32;5.22;;;;;;;6.51;57.84;100777.22;4408671;32;33623;-75
2022/01/14 09:47:06;;;;;;;14.10;5.60;;;;;;;6.52;57.23;100792.59;4398203;32;33706;-76
2022/01/14 09:49:40;;;;;;;9.38;4.65;;;;;;;6.77;56.47;100785.47;4398274;32;33937;-75
2022/01/14 09:52:14;;;;;;;12.80;5.55;;;;;;;6.87;56.08;100788.97;4376083;32;34125;-75
2022/01/14 09:54:51;;;;;;;9.90;4.47;;;;;;;6.83;56.03;100793.03;4399484;32;33818;-75
2022/01/14 09:57:24;;;;;;;12.45;5.95;;;;;;;6.84;56.32;100788.44;4398993;32;33011;-76
2022/01/14 09:59:55;;;;;;;11.20;5.45;;;;;;;6.78;56.00;100787.19;4399184;32;34380;-75
2022/01/14 10:02:40;;;;;;;12.65;4.78;;;;;;;6.90;55.35;100777.75;4400033;32;33344;-76
2022/01/14 10:05:15;;;;;;;22.25;10.50;;;;;;;6.89;55.40;100781.50;4407268;32;33591;-76
2022/01/14 10:08:05;;;;;;;12.35;4.75;;;;;;;7.36;54.85;100778.38;4407572;32;35018;-76
2022/01/14 10:10:38;;;;;;;9.07;4.37;;;;;;;7.35;54.07;100768.47;4419599;32;33334;-75
2022/01/14 10:13:13;;;;;;;11.50;4.68;;;;;;;7.15;54.55;100759.66;4416788;32;31828;-75
2022/01/14 10:15:53;;;;;;;10.88;4.62;;;;;;;6.92;54.88;100742.97;4386531;32;32309;-75
2022/01/14 10:18:26;;;;;;;11.27;5.03;;;;;;;7.01;54.56;100741.16;4408149;32;34279;-76
2022/01/14 10:21:01;;;;;;;10.10;4.68;;;;;;;7.48;53.28;100738.84;4419295;32;34110;-75
2022/01/14 10:23:47;;;;;;;10.55;5.05;;;;;;;7.16;53.93;100727.75;4405356;32;32843;-76
2022/01/14 10:26:18;;;;;;;10.65;4.80;;;;;;;7.60;52.87;100736.69;4406799;32;33947;-76
2022/01/14 10:29:02;;;;;;;10.95;4.72;;;;;;;7.39;53.47;100738.97;4406045;32;35372;-76
2022/01/14 10:31:36;;;;;;;11.55;4.32;;;;;;;7.34;53.08;100734.00;4395585;32;32387;-75
2022/01/14 10:34:14;;;;;;;10.75;4.97;;;;;;;7.06;53.73;100724.31;4405354;32;31751;-76
2022/01/14 10:36:50;;;;;;;11.60;6.07;;;;;;;7.17;53.20;100724.84;4431716;32;32978;-75
2022/01/14 10:39:25;;;;;;;11.60;4.68;;;;;;;7.50;54.29;100717.69;4420265;32;32919;-76
2022/01/14 10:42:00;;;;;;;11.12;5.47;;;;;;;7.40;53.09;100716.09;4406801;32;34057;-76
2022/01/14 10:45:19;;;;;;;10.90;5.15;;;;;;;7.60;52.42;100695.72;4407635;32;32908;-77
2022/01/14 10:47:54;;;;;;;10.02;4.82;;;;;;;7.41;53.08;100699.56;4432131;32;33139;-74
2022/01/14 10:50:34;;;;;;;10.18;4.82;;;;;;;7.39;52.78;100682.47;4408036;32;34443;-75
2022/01/14 10:53:14;;;;;;;10.05;4.85;;;;;;;7.43;52.85;100686.59;4417174;32;33960;-76
2022/01/14 10:55:59;;;;;;;10.88;4.95;;;;;;;7.43;52.56;100683.88;4409891;32;33255;-77
2022/01/14 10:58:34;;;;;;;12.35;5.35;;;;;;;7.34;53.16;100676.66;4421028;32;34100;-76
2022/01/14 11:01:18;;;;;;;11.05;5.43;;;;;;;7.20;54.48;100693.66;4409243;32;34606;-76
2022/01/14 11:04:00;;;;;;;18.58;8.75;;;;;;;7.37;54.27;100694.59;4409197;32;34683;-76
2022/01/14 11:06:38;;;;;;;10.13;5.00;;;;;;;7.60;52.36;100690.25;4408576;32;32692;-75
2022/01/14 11:09:29;;;;;;;9.90;4.75;;;;;;;7.40;52.78;100678.72;4409306;32;33719;-76
2022/01/14 11:12:04;;;;;;;10.13;4.70;;;;;;;7.55;52.51;100682.56;4422693;32;35358;-76
2022/01/14 11:14:35;;;;;;;9.25;4.72;;;;;;;7.75;51.84;100677.66;4408901;32;32543;-76
2022/01/14 11:17:09;;;;;;;12.05;5.25;;;;;;;7.60;52.27;100682.06;4408852;32;33243;-76
2022/01/14 11:19:50;;;;;;;13.55;5.15;;;;;;;7.86;51.57;100681.94;4410150;32;34508;-76
2022/01/14 11:25:05;;;;;;;11.55;4.62;;;;;;;7.84;51.35;100686.72;4421490;32;33965;-78
2022/01/14 11:27:35;;;;;;;13.35;5.50;;;;;;;7.46;52.21;100661.69;4395802;32;32767;-76
2022/01/14 11:30:14;;;;;;;12.48;5.45;;;;;;;7.40;52.43;100678.72;4408349;32;34412;-76
2022/01/14 11:33:02;;;;;;;15.32;6.50;;;;;;;7.34;53.01;100656.69;4408777;32;34293;-76
2022/01/14 11:35:35;;;;;;;13.23;5.95;;;;;;;7.55;52.30;100643.47;4408400;32;32459;-76
2022/01/14 11:38:27;;;;;;;16.98;7.95;;;;;;;7.38;52.99;100641.69;4396658;32;33249;-76
2022/01/14 11:41:01;;;;;;;13.32;5.90;;;;;;;7.57;52.27;100657.81;4408402;32;34202;-75
2022/01/14 11:43:50;;;;;;;12.80;5.50;;;;;;;7.54;52.47;100630.81;4408565;32;34799;-75
2022/01/14 11:46:44;;;;;;;31.77;14.52;;;;;;;7.63;53.20;100618.03;4408831;32;32763;-76
2022/01/14 11:49:34;;;;;;;13.20;6.30;;;;;;;7.80;52.03;100631.53;4411288;32;34313;-79
2022/01/14 11:52:04;;;;;;;91.05;27.98;;;;;;;7.90;51.93;100639.59;4398252;32;32217;-77
2022/01/14 11:54:45;;;;;;;94.68;32.70;;;;;;;7.61;52.42;100629.12;4410521;32;33023;-76
2022/01/14 11:57:42;;;;;;;50.28;16.23;;;;;;;7.71;51.96;100643.50;4398165;32;33544;-77
2022/01/14 12:00:26;;;;;;;21.87;8.40;;;;;;;7.47;53.07;100621.56;4410953;32;33359;-76
2022/01/14 12:03:26;;;;;;;16.40;5.53;;;;;;;7.97;52.01;100618.75;4422990;32;33505;-77
2022/01/14 12:06:05;;;;;;;20.23;8.38;;;;;;;7.94;51.93;100630.03;4411220;32;34808;-77
2022/01/14 12:08:36;;;;;;;12.75;5.82;;;;;;;7.64;52.54;100622.47;4420663;32;34649;-77
2022/01/14 12:11:10;;;;;;;11.82;5.85;;;;;;;7.57;52.73;100616.81;4410614;32;33233;-77
2022/01/14 12:13:48;;;;;;;12.70;6.00;;;;;;;7.77;52.41;100622.84;4423254;32;32001;-77
2022/01/14 12:16:25;;;;;;;11.90;5.30;;;;;;;8.11;51.55;100606.28;4423340;32;33145;-77
2022/01/14 12:19:02;;;;;;;13.48;6.18;;;;;;;7.85;52.17;100604.56;4423289;32;32492;-77
2022/01/14 12:21:39;;;;;;;15.32;7.62;;;;;;;8.41;51.14;100591.09;4398578;32;31958;-76
2022/01/14 12:24:18;;;;;;;18.20;7.95;;;;;;;8.16;51.59;100595.69;4424718;32;33796;-77
2022/01/14 12:26:51;;;;;;;16.80;7.70;;;;;;;8.23;51.57;100599.47;4423244;32;32914;-77
2022/01/14 12:29:24;;;;;;;9.93;5.10;;;;;;;8.63;50.63;100597.72;4423367;32;34219;-77